createdAt,value
2024-05-09T00:00:42.012Z,15.31
2024-05-09T00:03:10.591Z,15.31
2024-05-09T00:05:40.847Z,15.30
2024-05-09T00:08:10.051Z,15.31
2024-05-09T00:10:39.164Z,15.34
2024-05-09T00:13:07.977Z,15.32
2024-05-09T00:15:35.984Z,15.30
2024-05-09T00:18:04.557Z,15.28
2024-05-09T00:20:38.305Z,15.28
2024-05-09T00:23:12.640Z,15.29
2024-05-09T00:25:42.937Z,15.28
2024-05-09T00:28:11.516Z,15.27
2024-05-09T00:30:38.489Z,15.28
2024-05-09T00:33:06.967Z,15.27
2024-05-09T00:35:35.483Z,15.25
2024-05-09T00:38:02.662Z,15.24
2024-05-09T00:40:39.754Z,15.24
2024-05-09T00:43:10.830Z,15.22
2024-05-09T00:45:38.183Z,15.20
2024-05-09T00:48:08.267Z,15.20
2024-05-09T00:50:40.605Z,15.20
2024-05-09T00:53:11.490Z,15.21
2024-05-09T00:55:39.747Z,15.19
2024-05-09T00:58:09.671Z,15.20
2024-05-09T01:00:39.992Z,15.20
2024-05-09T01:03:11.122Z,15.21
2024-05-09T01:05:40.368Z,15.22
2024-05-09T01:08:08.734Z,15.20
2024-05-09T01:10:40.816Z,15.19
2024-05-09T01:13:10.106Z,15.17
2024-05-09T01:15:37.137Z,15.17
2024-05-09T01:18:12.073Z,15.12
2024-05-09T01:20:43.260Z,15.05
2024-05-09T01:23:14.204Z,15.06
2024-05-09T01:25:43.155Z,15.05
2024-05-09T01:28:10.332Z,15.01
2024-05-09T01:30:38.221Z,15.01
2024-05-09T01:33:08.459Z,14.98
2024-05-09T01:35:37.831Z,14.98
2024-05-09T01:38:05.335Z,14.98
2024-05-09T01:40:37.995Z,15.00
2024-05-09T01:43:08.557Z,15.00
2024-05-09T01:45:36.656Z,14.99
2024-05-09T01:48:04.331Z,14.92
2024-05-09T01:53:01.747Z,14.88
2024-05-09T01:55:28.763Z,14.85
2024-05-09T01:57:55.722Z,14.85
2024-05-09T02:00:33.810Z,14.80
2024-05-09T02:03:15.510Z,14.81
2024-05-09T02:05:46.755Z,14.82
2024-05-09T02:08:16.387Z,14.78
2024-05-09T02:10:44.693Z,14.80
2024-05-09T02:13:12.532Z,14.75
2024-05-09T02:15:39.482Z,14.76
2024-05-09T02:18:08.185Z,14.78
2024-05-09T02:20:37.911Z,14.78
2024-05-09T02:23:06.617Z,14.77
2024-05-09T02:25:34.217Z,14.70
2024-05-09T02:28:01.410Z,14.69
2024-05-09T02:32:58.516Z,14.68
2024-05-09T02:35:26.785Z,14.68
2024-05-09T02:37:53.848Z,14.68
2024-05-09T02:40:28.382Z,14.69
2024-05-09T02:43:01.244Z,14.71
2024-05-09T02:45:28.284Z,14.68
2024-05-09T02:47:55.467Z,14.63
2024-05-09T02:50:29.983Z,14.62
2024-05-09T02:53:04.044Z,14.65
2024-05-09T02:55:31.290Z,14.67
2024-05-09T02:57:58.273Z,14.62
2024-05-09T03:00:34.310Z,14.64
2024-05-09T03:03:08.352Z,14.58
2024-05-09T03:05:36.949Z,14.58
2024-05-09T03:08:04.821Z,14.60
2024-05-09T03:10:36.196Z,14.58
2024-05-09T03:13:15.457Z,14.57
2024-05-09T03:15:44.476Z,14.57
2024-05-09T03:18:12.351Z,14.54
2024-05-09T03:20:40.100Z,14.56
2024-05-09T03:23:09.544Z,14.55
2024-05-09T03:25:37.996Z,14.57
2024-05-09T03:28:05.527Z,14.55
2024-05-09T03:30:40.008Z,14.56
2024-05-09T03:33:18.364Z,14.51
2024-05-09T03:35:48.823Z,14.51
2024-05-09T03:38:16.637Z,14.47
2024-05-09T03:40:50.598Z,14.47
2024-05-09T03:43:18.709Z,14.47
2024-05-09T03:45:48.341Z,14.48
2024-05-09T03:48:15.747Z,14.48
2024-05-09T03:50:43.041Z,14.49
2024-05-09T03:53:12.309Z,14.56
2024-05-09T03:55:39.749Z,14.51
2024-05-09T03:58:07.994Z,14.52
2024-05-09T04:00:38.976Z,14.54
2024-05-09T04:03:10.277Z,14.53
2024-05-09T04:05:40.915Z,14.58
2024-05-09T04:08:09.556Z,14.55
2024-05-09T04:10:36.759Z,14.61
2024-05-09T04:13:04.362Z,14.57
2024-05-09T04:15:31.850Z,14.58
2024-05-09T04:17:59.338Z,14.60
2024-05-09T04:22:56.703Z,14.62
2024-05-09T04:25:23.717Z,14.64
2024-05-09T04:27:50.657Z,14.67
2024-05-09T04:30:25.747Z,14.75
2024-05-09T04:33:01.051Z,14.74
2024-05-09T04:35:28.300Z,14.80
2024-05-09T04:37:55.409Z,14.78
2024-05-09T04:40:28.578Z,14.80
2024-05-09T04:43:01.014Z,14.84
2024-05-09T04:45:28.051Z,14.89
2024-05-09T04:47:55.230Z,14.94
2024-05-09T04:50:30.292Z,14.97
2024-05-09T04:53:03.866Z,15.09
2024-05-09T04:55:31.281Z,15.17
2024-05-09T04:57:58.259Z,15.22
2024-05-09T05:00:32.651Z,15.24
2024-05-09T05:03:10.804Z,15.36
2024-05-09T05:05:40.987Z,15.45
2024-05-09T05:08:15.562Z,15.47
2024-05-09T05:10:44.063Z,15.60
2024-05-09T05:13:22.570Z,15.75
2024-05-09T05:15:57.349Z,15.80
2024-05-09T05:18:27.263Z,15.94
2024-05-09T05:20:56.243Z,15.94
2024-05-09T05:23:24.384Z,15.96
2024-05-09T05:25:53.436Z,16.13
2024-05-09T05:28:21.837Z,15.96
2024-05-09T05:30:48.941Z,16.15
2024-05-09T05:33:19.025Z,16.07
2024-05-09T05:35:46.688Z,16.13
2024-05-09T05:38:13.724Z,16.26
2024-05-09T05:40:41.253Z,16.23
2024-05-09T05:43:15.480Z,16.54
2024-05-09T05:45:42.458Z,16.64
2024-05-09T05:48:10.024Z,16.57
2024-05-09T05:50:38.464Z,16.64
2024-05-09T05:53:07.856Z,16.68
2024-05-09T05:55:38.552Z,16.75
2024-05-09T05:58:05.680Z,16.91
2024-05-09T06:00:38.883Z,17.13
2024-05-09T06:03:12.668Z,17.55
2024-05-09T06:05:40.887Z,17.86
2024-05-09T06:08:09.075Z,18.18
2024-05-09T06:10:39.491Z,18.51
2024-05-09T06:13:10.835Z,18.78
2024-05-09T06:15:38.037Z,19.05
2024-05-09T06:18:07.093Z,19.03
2024-05-09T06:20:37.119Z,19.28
2024-05-09T06:23:06.888Z,19.40
2024-05-09T06:25:47.494Z,19.58
2024-05-09T06:28:14.466Z,19.75
2024-05-09T06:30:42.756Z,19.89
2024-05-09T06:33:13.867Z,19.99
2024-05-09T06:35:43.417Z,20.27
2024-05-09T06:38:10.790Z,20.07
2024-05-09T06:40:42.549Z,20.36
2024-05-09T06:43:16.428Z,20.62
2024-05-09T06:45:46.784Z,20.10
2024-05-09T06:48:14.442Z,20.03
2024-05-09T06:50:41.876Z,19.76
2024-05-09T06:53:09.231Z,20.25
2024-05-09T06:55:37.160Z,20.62
2024-05-09T06:58:06.559Z,20.94
2024-05-09T07:00:38.995Z,20.72
2024-05-09T07:03:15.273Z,21.11
2024-05-09T07:05:45.388Z,21.32
2024-05-09T07:08:12.946Z,21.74
2024-05-09T07:10:40.006Z,21.71
2024-05-09T07:13:14.906Z,22.18
2024-05-09T07:15:42.986Z,22.54
2024-05-09T07:18:15.375Z,22.46
2024-05-09T07:20:43.070Z,22.29
2024-05-09T07:23:11.498Z,22.27
2024-05-09T07:25:40.169Z,22.16
2024-05-09T07:28:15.443Z,22.77
2024-05-09T07:30:43.102Z,22.17
2024-05-09T07:33:16.225Z,21.91
2024-05-09T07:35:43.387Z,21.72
2024-05-09T07:38:10.477Z,21.66
2024-05-09T07:40:38.523Z,21.92
2024-05-09T07:43:07.263Z,22.35
2024-05-09T07:52:32.643Z,22.44
2024-05-09T07:55:55.864Z,22.73
2024-05-09T07:58:27.363Z,23.00
2024-05-09T08:00:55.330Z,23.15
2024-05-09T08:03:23.292Z,22.87
2024-05-09T08:05:51.809Z,22.84
2024-05-09T08:08:18.910Z,23.13
2024-05-09T08:10:46.405Z,22.76
2024-05-09T08:13:13.672Z,23.14
2024-05-09T08:15:40.805Z,23.46
2024-05-09T08:18:10.755Z,23.93
2024-05-09T08:20:42.111Z,24.18
2024-05-09T08:23:09.138Z,24.08
2024-05-09T08:25:36.153Z,23.68
2024-05-09T08:28:05.191Z,23.44
2024-05-09T08:30:36.911Z,22.94
2024-05-09T08:33:06.850Z,22.97
2024-05-09T08:35:35.474Z,22.68
2024-05-09T08:38:07.421Z,23.25
2024-05-09T08:40:37.414Z,23.35
2024-05-09T08:43:11.587Z,22.96
2024-05-09T08:45:44.051Z,22.81
2024-05-09T08:48:14.800Z,22.59
2024-05-09T08:50:43.655Z,22.57
2024-05-09T08:53:10.994Z,22.81
2024-05-09T08:55:40.477Z,22.58
2024-05-09T08:58:14.414Z,22.59
2024-05-09T09:00:43.616Z,23.40
2024-05-09T09:03:34.766Z,23.77
2024-05-09T09:06:15.116Z,24.16
2024-05-09T09:08:42.104Z,24.20
2024-05-09T09:11:09.133Z,23.74
2024-05-09T09:13:36.070Z,23.38
2024-05-09T09:16:03.655Z,22.70
2024-05-09T09:18:31.285Z,22.91
2024-05-09T09:20:58.661Z,22.65
2024-05-09T09:23:30.495Z,22.60
2024-05-09T09:26:00.866Z,22.47
2024-05-09T09:28:28.189Z,22.22
2024-05-09T09:31:03.374Z,22.22
2024-05-09T09:33:35.620Z,21.83
2024-05-09T09:36:03.298Z,21.70
2024-05-09T09:38:32.406Z,21.65
2024-05-09T09:41:01.649Z,21.45
2024-05-09T09:43:29.577Z,21.40
2024-05-09T09:45:59.943Z,21.16
2024-05-09T09:48:29.110Z,20.94
2024-05-09T09:50:57.323Z,20.78
2024-05-09T09:53:24.898Z,20.76
2024-05-09T09:55:53.179Z,20.65
2024-05-09T09:58:20.916Z,20.63
2024-05-09T10:00:48.139Z,20.55
2024-05-09T10:03:15.235Z,20.58
2024-05-09T10:05:45.377Z,20.21
2024-05-09T10:08:16.017Z,20.35
2024-05-09T10:10:47.418Z,20.61
2024-05-09T10:13:14.927Z,20.52
2024-05-09T10:15:52.936Z,20.61
2024-05-09T10:18:28.167Z,20.80
2024-05-09T10:20:57.445Z,20.92
2024-05-09T10:23:33.353Z,21.06
2024-05-09T10:26:06.159Z,21.17
2024-05-09T10:28:36.753Z,21.09
2024-05-09T10:31:16.298Z,20.84
2024-05-09T10:33:52.595Z,20.85
2024-05-09T10:36:25.757Z,21.09
2024-05-09T10:38:54.701Z,21.44
2024-05-09T10:41:23.183Z,21.60
2024-05-09T10:43:51.128Z,21.81
2024-05-09T10:46:21.211Z,22.02
2024-05-09T10:48:49.066Z,22.20
2024-05-09T10:51:19.565Z,22.10
2024-05-09T10:53:48.308Z,22.29
2024-05-09T10:56:16.142Z,22.35
2024-05-09T10:58:43.238Z,22.66
2024-05-09T11:01:10.892Z,22.10
2024-05-09T11:03:39.003Z,22.33
2024-05-09T11:06:06.987Z,22.61
2024-05-09T11:08:35.493Z,22.57
2024-05-09T11:11:07.122Z,22.62
2024-05-09T11:13:37.525Z,22.95
2024-05-09T11:16:07.438Z,23.39
2024-05-09T11:18:38.198Z,23.47
2024-05-09T11:21:13.502Z,23.56
2024-05-09T11:23:41.280Z,23.07
2024-05-09T11:26:09.153Z,23.64
2024-05-09T11:28:36.189Z,23.49
2024-05-09T11:31:08.648Z,23.54
2024-05-09T11:33:41.081Z,23.54
2024-05-09T11:36:09.564Z,23.22
2024-05-09T11:38:36.757Z,23.41
2024-05-09T11:41:05.188Z,23.63
2024-05-09T11:43:32.641Z,23.71
2024-05-09T11:46:00.398Z,23.96
2024-05-09T11:48:27.945Z,23.95
2024-05-09T11:50:56.665Z,24.11
2024-05-09T11:53:23.664Z,24.53
2024-05-09T11:55:50.682Z,24.13
2024-05-09T11:58:19.091Z,24.53
2024-05-09T12:00:47.108Z,23.97
2024-05-09T12:03:14.673Z,24.30
2024-05-09T12:05:42.009Z,24.15
2024-05-09T12:08:09.404Z,24.74
2024-05-09T12:10:37.110Z,24.94
2024-05-09T12:13:06.564Z,24.63
2024-05-09T12:15:37.934Z,25.24
2024-05-09T12:18:07.593Z,25.87
2024-05-09T12:20:38.683Z,26.38
2024-05-09T12:23:09.759Z,26.19
2024-05-09T12:25:38.745Z,26.62
2024-05-09T12:28:07.004Z,25.75
2024-05-09T12:30:38.384Z,26.08
2024-05-09T12:33:13.265Z,26.82
2024-05-09T12:35:44.090Z,26.86
2024-05-09T12:38:14.507Z,26.40
2024-05-09T12:40:42.337Z,26.53
2024-05-09T12:43:10.747Z,26.81
2024-05-09T12:45:39.193Z,27.00
2024-05-09T12:48:11.898Z,27.08
2024-05-09T12:50:40.256Z,26.89
2024-05-09T12:53:07.409Z,26.15
2024-05-09T12:55:41.381Z,26.60
2024-05-09T12:58:16.841Z,25.67
2024-05-09T13:00:44.909Z,26.14
2024-05-09T13:03:12.232Z,25.91
2024-05-09T13:05:41.375Z,25.97
2024-05-09T13:08:08.818Z,26.19
2024-05-09T13:10:36.372Z,25.80
2024-05-09T13:13:03.509Z,24.96
2024-05-09T13:15:31.585Z,25.25
2024-05-09T13:18:02.186Z,25.20
2024-05-09T13:20:34.061Z,24.64
2024-05-09T13:23:08.303Z,24.50
2024-05-09T13:25:36.982Z,24.77
2024-05-09T13:28:06.110Z,24.60
2024-05-09T13:30:39.588Z,23.82
2024-05-09T13:33:13.673Z,23.94
2024-05-09T13:35:48.793Z,23.64
2024-05-09T13:38:19.059Z,23.66
2024-05-09T13:40:46.877Z,23.80
2024-05-09T13:43:14.335Z,23.64
2024-05-09T13:45:41.588Z,23.88
2024-05-09T13:48:10.004Z,23.57
2024-05-09T13:50:37.475Z,23.24
2024-05-09T13:53:07.003Z,23.72
2024-05-09T13:55:37.762Z,24.13
2024-05-09T13:58:05.583Z,24.50
2024-05-09T14:00:43.787Z,25.59
2024-05-09T14:03:16.632Z,25.71
2024-05-09T14:05:45.305Z,25.04
2024-05-09T14:08:13.590Z,24.73
2024-05-09T14:10:44.410Z,24.72
2024-05-09T14:13:13.122Z,23.95
2024-05-09T14:15:40.587Z,23.51
2024-05-09T14:18:11.514Z,23.74
2024-05-09T14:20:41.066Z,23.70
2024-05-09T14:23:08.077Z,23.38
2024-05-09T14:25:38.818Z,23.47
2024-05-09T14:28:09.589Z,23.25
2024-05-09T14:30:38.251Z,24.04
2024-05-09T14:33:08.010Z,24.11
2024-05-09T14:35:37.219Z,24.10
2024-05-09T14:38:04.782Z,24.40
2024-05-09T14:43:03.489Z,23.74
2024-05-09T14:45:30.629Z,23.75
2024-05-09T14:47:57.740Z,23.85
2024-05-09T14:50:34.618Z,23.46
2024-05-09T14:53:05.928Z,23.63
2024-05-09T14:55:35.632Z,23.57
2024-05-09T14:58:03.268Z,23.64
2024-05-09T15:00:35.653Z,23.54
2024-05-09T15:03:05.112Z,23.57
2024-05-09T15:05:32.376Z,23.88
2024-05-09T15:08:00.103Z,24.90
2024-05-09T15:10:34.172Z,25.73
2024-05-09T15:13:03.739Z,27.39
2024-05-09T15:15:31.078Z,28.18
2024-05-09T15:17:58.448Z,29.27
2024-05-09T15:20:33.079Z,30.09
2024-05-09T15:23:03.224Z,31.01
2024-05-09T15:25:30.694Z,31.69
2024-05-09T15:27:57.926Z,31.34
2024-05-09T15:32:54.969Z,30.06
2024-05-09T15:35:22.028Z,30.16
2024-05-09T15:37:49.307Z,29.67
2024-05-09T15:40:26.095Z,28.71
2024-05-09T15:43:02.554Z,26.93
2024-05-09T15:45:29.785Z,25.65
2024-05-09T15:47:57.625Z,25.31
2024-05-09T15:50:35.409Z,25.08
2024-05-09T15:53:07.181Z,24.28
2024-05-09T15:55:35.187Z,24.00
2024-05-09T15:58:03.355Z,23.71
2024-05-09T16:00:37.848Z,23.52
2024-05-09T16:03:09.878Z,23.07
2024-05-09T16:05:37.759Z,22.74
2024-05-09T16:08:06.346Z,22.54
2024-05-09T16:10:34.888Z,22.10
2024-05-09T16:13:03.401Z,22.27
2024-05-09T16:15:31.154Z,21.84
2024-05-09T16:17:58.465Z,21.91
2024-05-09T16:20:34.414Z,22.00
2024-05-09T16:23:07.692Z,21.91
2024-05-09T16:25:35.003Z,21.77
2024-05-09T16:28:06.384Z,21.57
2024-05-09T16:30:36.583Z,21.51
2024-05-09T16:33:05.397Z,21.64
2024-05-09T16:35:32.978Z,21.75
2024-05-09T16:38:02.774Z,21.60
2024-05-09T16:40:37.369Z,21.74
2024-05-09T16:43:11.125Z,21.47
2024-05-09T16:45:40.870Z,21.68
2024-05-09T16:48:08.703Z,21.70
2024-05-09T16:50:36.720Z,21.73
2024-05-09T16:53:05.857Z,21.69
2024-05-09T16:55:33.840Z,21.76
2024-05-09T16:58:01.590Z,21.69
2024-05-09T17:00:38.521Z,21.63
2024-05-09T17:03:11.454Z,21.70
2024-05-09T17:05:39.729Z,21.74
2024-05-09T17:08:07.799Z,21.78
2024-05-09T17:10:36.322Z,21.59
2024-05-09T17:13:06.099Z,21.49
2024-05-09T17:15:34.698Z,21.37
2024-05-09T17:18:02.370Z,21.38
2024-05-09T17:20:34.258Z,21.16
2024-05-09T17:23:05.688Z,21.21
2024-05-09T17:25:33.721Z,21.19
2024-05-09T17:28:06.226Z,20.99
2024-05-09T17:30:38.758Z,21.08
2024-05-09T17:33:09.184Z,21.07
2024-05-09T17:35:37.130Z,20.79
2024-05-09T17:38:07.712Z,20.60
2024-05-09T17:40:37.085Z,20.55
2024-05-09T17:43:07.984Z,20.41
2024-05-09T17:45:40.955Z,20.26
2024-05-09T17:48:10.350Z,20.10
2024-05-09T17:50:38.660Z,19.99
2024-05-09T17:53:06.643Z,19.86
2024-05-09T17:55:34.110Z,19.84
2024-05-09T17:58:01.664Z,19.79
2024-05-09T18:00:37.023Z,19.55
2024-05-09T18:03:08.751Z,19.37
2024-05-09T18:05:37.227Z,19.20
2024-05-09T18:08:06.615Z,19.03
2024-05-09T18:13:06.048Z,18.77
2024-05-09T18:15:33.648Z,18.53
2024-05-09T18:18:01.747Z,18.40
2024-05-09T18:20:37.931Z,18.24
2024-05-09T18:23:10.824Z,17.99
2024-05-09T18:25:37.906Z,17.78
2024-05-09T18:28:06.221Z,17.60
2024-05-09T18:30:36.428Z,17.51
2024-05-09T18:33:06.649Z,17.39
2024-05-09T18:35:35.065Z,17.27
2024-05-09T18:38:02.281Z,17.09
2024-05-09T18:40:34.383Z,16.98
2024-05-09T18:43:06.913Z,16.86
2024-05-09T18:45:38.863Z,16.83
2024-05-09T18:48:08.382Z,16.79
2024-05-09T18:50:39.275Z,16.74
2024-05-09T18:53:11.092Z,16.67
2024-05-09T18:55:39.093Z,16.61
2024-05-09T18:58:06.495Z,16.51
2024-05-09T19:00:37.247Z,16.45
2024-05-09T19:03:09.858Z,16.29
2024-05-09T19:05:39.549Z,16.21
2024-05-09T19:08:07.899Z,16.14
2024-05-09T19:10:37.432Z,16.03
2024-05-09T19:13:09.091Z,15.96
2024-05-09T19:15:39.761Z,15.85
2024-05-09T19:18:07.733Z,15.72
2024-05-09T19:20:36.497Z,15.67
2024-05-09T19:23:06.000Z,15.53
2024-05-09T19:25:33.685Z,15.50
2024-05-09T19:28:01.434Z,15.43
2024-05-09T19:30:37.158Z,15.45
2024-05-09T19:33:09.442Z,15.38
2024-05-09T19:35:37.189Z,15.32
2024-05-09T19:38:05.135Z,15.21
2024-05-09T19:40:34.029Z,15.08
2024-05-09T19:43:03.099Z,15.01
2024-05-09T19:45:32.739Z,14.88
2024-05-09T19:48:00.159Z,14.80
2024-05-09T19:50:36.654Z,14.79
2024-05-09T19:53:09.468Z,14.68
2024-05-09T19:55:36.724Z,14.64
2024-05-09T19:58:05.628Z,14.60
2024-05-09T20:00:40.562Z,14.56
2024-05-09T20:03:11.653Z,14.54
2024-05-09T20:05:39.621Z,14.51
2024-05-09T20:08:07.486Z,14.50
2024-05-09T20:10:36.147Z,14.51
2024-05-09T20:13:06.266Z,14.49
2024-05-09T20:15:35.595Z,14.46
2024-05-09T20:18:03.157Z,14.39
2024-05-09T20:20:37.430Z,14.34
2024-05-09T20:23:09.104Z,14.27
2024-05-09T20:25:36.332Z,14.18
2024-05-09T20:28:03.546Z,14.12
2024-05-09T20:30:32.742Z,14.07
2024-05-09T20:33:04.057Z,13.95
2024-05-09T20:35:32.536Z,13.86
2024-05-09T20:38:01.009Z,13.89
2024-05-09T20:40:32.910Z,13.88
2024-05-09T20:43:04.025Z,13.86
2024-05-09T20:45:31.147Z,13.81
2024-05-09T20:47:58.390Z,13.81
2024-05-09T20:50:35.748Z,13.71
2024-05-09T20:53:09.041Z,13.68
2024-05-09T20:55:36.171Z,13.68
2024-05-09T20:58:03.325Z,13.67
2024-05-09T21:00:55.540Z,13.65
2024-05-09T21:03:22.651Z,13.67
2024-05-09T21:05:49.802Z,13.63
2024-05-09T21:08:16.805Z,13.72
2024-05-09T21:10:44.088Z,13.67
2024-05-09T21:13:11.487Z,13.62
2024-05-09T21:15:38.733Z,13.58
2024-05-09T21:18:05.968Z,13.46
2024-05-09T21:20:34.799Z,13.44
2024-05-09T21:23:02.729Z,13.40
2024-05-09T21:25:30.085Z,13.37
2024-05-09T21:27:57.230Z,13.29
2024-05-09T21:32:54.418Z,13.33
2024-05-09T21:35:21.448Z,13.32
2024-05-09T21:37:48.425Z,13.36
2024-05-09T21:40:24.348Z,13.35
2024-05-09T21:42:58.459Z,13.33
2024-05-09T21:45:25.421Z,13.38
2024-05-09T21:47:52.425Z,13.32
2024-05-09T21:50:27.351Z,13.25
2024-05-09T21:52:58.879Z,13.17
2024-05-09T21:55:26.009Z,13.13
2024-05-09T21:57:53.004Z,13.02
2024-05-09T22:00:28.408Z,12.96
2024-05-09T22:03:02.449Z,12.91
2024-05-09T22:05:29.809Z,12.78
2024-05-09T22:07:57.115Z,12.74
2024-05-09T22:10:30.670Z,12.70
2024-05-09T22:13:01.579Z,12.69
2024-05-09T22:15:28.877Z,12.66
2024-05-09T22:17:57.469Z,12.55
2024-05-09T22:20:34.293Z,12.57
2024-05-09T22:23:05.135Z,12.54
2024-05-09T22:25:32.820Z,12.51
2024-05-09T22:28:01.714Z,12.43
2024-05-09T22:30:35.925Z,12.43
2024-05-09T22:33:11.050Z,12.38
2024-05-09T22:35:39.921Z,12.31
2024-05-09T22:38:07.000Z,12.27
2024-05-09T22:40:43.388Z,12.24
2024-05-09T22:43:23.722Z,12.15
2024-05-09T22:45:54.370Z,12.12
2024-05-09T22:48:22.006Z,12.05
2024-05-09T22:50:49.188Z,12.08
2024-05-09T22:53:16.822Z,11.99
2024-05-09T22:55:43.791Z,11.95
2024-05-09T22:58:10.965Z,11.93
2024-05-09T23:00:38.286Z,11.94
2024-05-09T23:03:06.185Z,11.90
2024-05-09T23:05:33.389Z,11.85
2024-05-09T23:08:03.642Z,11.83
2024-05-09T23:10:36.121Z,11.73
2024-05-09T23:13:06.818Z,11.66
2024-05-09T23:15:34.598Z,11.64
2024-05-09T23:18:01.882Z,11.66
2024-05-09T23:20:36.361Z,11.63
2024-05-09T23:23:10.938Z,11.67
2024-05-09T23:25:41.250Z,11.62
2024-05-09T23:28:08.580Z,11.58
2024-05-09T23:30:39.062Z,11.52
2024-05-09T23:33:10.373Z,11.47
2024-05-09T23:35:38.494Z,11.42
2024-05-09T23:38:05.573Z,11.40
2024-05-09T23:43:03.226Z,11.32
2024-05-09T23:45:30.861Z,11.37
2024-05-09T23:47:58.002Z,11.31
2024-05-09T23:50:33.147Z,11.22
2024-05-09T23:53:03.466Z,11.21
2024-05-09T23:55:31.447Z,11.23
2024-05-09T23:57:58.711Z,11.22
